LDZL weather

Lučko Airport
Zagreb, Zagreb (city), Croatia

Public forecast

Using degrees Celsius for public forecast. Weather courtesy of forecast.io.

METAR (pilot weather report)

Closest report is Zagreb Airport, 9.3 nm (17.3 km) E. Retrieved 2019/05/24 10:30 UTC (0 seconds ago):

LDZA 241030Z VRB02KT 9999 FEW045 21/08 Q1014 NOSIG

TAF (pilot weather forecast)

Closest forecast is Zagreb Airport, 9.3 nm (17.3 km) E. Retrieved 2019/05/24 06:26 UTC (4 hours ago):

TAF LDZA 240525Z 2406/2506 VRB02KT 9999 FEW045 TX23/2413Z TN13/2504Z